createdAt,value
2024-05-09T00:01:48.115Z,15.83
2024-05-09T00:04:21.060Z,15.83
2024-05-09T00:06:50.889Z,15.79
2024-05-09T00:09:20.670Z,15.81
2024-05-09T00:11:50.586Z,15.78
2024-05-09T00:14:20.394Z,15.76
2024-05-09T00:16:51.116Z,15.75
2024-05-09T00:19:21.041Z,15.72
2024-05-09T00:21:50.917Z,15.74
2024-05-09T00:24:20.650Z,15.73
2024-05-09T00:26:50.372Z,15.71
2024-05-09T00:29:20.240Z,15.71
2024-05-09T00:31:50.282Z,15.70
2024-05-09T00:34:20.169Z,15.70
2024-05-09T00:36:50.127Z,15.71
2024-05-09T00:39:19.972Z,15.68
2024-05-09T00:41:49.857Z,15.69
2024-05-09T00:44:19.686Z,15.68
2024-05-09T00:46:54.633Z,15.66
2024-05-09T00:49:25.144Z,15.63
2024-05-09T00:51:57.884Z,15.63
2024-05-09T00:54:29.088Z,15.62
2024-05-09T00:56:59.361Z,15.62
2024-05-09T00:59:29.354Z,15.59
2024-05-09T01:02:01.112Z,15.57
2024-05-09T01:04:31.004Z,15.55
2024-05-09T01:07:00.898Z,15.53
2024-05-09T01:09:30.888Z,15.52
2024-05-09T01:12:00.932Z,15.51
2024-05-09T01:14:30.798Z,15.50
2024-05-09T01:17:00.671Z,15.49
2024-05-09T01:19:33.344Z,15.48
2024-05-09T01:22:04.607Z,15.47
2024-05-09T01:24:34.396Z,15.46
2024-05-09T01:27:04.278Z,15.46
2024-05-09T01:29:34.217Z,15.46
2024-05-09T01:32:05.226Z,15.46
2024-05-09T01:34:35.092Z,15.47
2024-05-09T01:37:04.874Z,15.46
2024-05-09T01:39:34.695Z,15.45
2024-05-09T01:42:04.569Z,15.42
2024-05-09T01:44:34.319Z,15.41
2024-05-09T01:47:04.296Z,15.41
2024-05-09T01:49:38.905Z,15.40
2024-05-09T01:52:08.910Z,15.38
2024-05-09T01:54:38.732Z,15.38
2024-05-09T01:57:08.690Z,15.38
2024-05-09T01:59:38.533Z,15.38
2024-05-09T02:02:11.569Z,15.38
2024-05-09T02:04:41.996Z,15.36
2024-05-09T02:07:11.955Z,15.35
2024-05-09T02:09:41.681Z,15.37
2024-05-09T02:12:11.672Z,15.35
2024-05-09T02:14:41.630Z,15.36
2024-05-09T02:17:11.529Z,15.36
2024-05-09T02:19:41.331Z,15.35
2024-05-09T02:22:11.070Z,15.36
2024-05-09T02:24:40.979Z,15.34
2024-05-09T02:27:10.668Z,15.36
2024-05-09T02:29:41.850Z,15.36
2024-05-09T02:32:11.684Z,15.39
2024-05-09T02:34:41.621Z,15.40
2024-05-09T02:37:11.376Z,15.41
2024-05-09T02:39:38.536Z,15.42
2024-05-09T02:42:08.483Z,15.41
2024-05-09T02:44:35.660Z,15.39
2024-05-09T02:47:05.506Z,15.40
2024-05-09T02:49:32.763Z,15.38
2024-05-09T02:52:02.671Z,15.38
2024-05-09T02:54:29.757Z,15.41
2024-05-09T02:56:59.539Z,15.40
2024-05-09T02:59:26.701Z,15.40
2024-05-09T03:01:56.673Z,15.40
2024-05-09T03:04:23.892Z,15.39
2024-05-09T03:06:53.712Z,15.37
2024-05-09T03:09:24.145Z,15.38
2024-05-09T03:11:54.989Z,15.38
2024-05-09T03:14:22.298Z,15.38
2024-05-09T03:16:52.149Z,15.37
2024-05-09T03:19:19.349Z,15.37
2024-05-09T03:21:49.257Z,15.37
2024-05-09T03:24:16.341Z,15.35
2024-05-09T03:26:46.052Z,15.34
2024-05-09T03:29:13.274Z,15.33
2024-05-09T03:31:43.055Z,15.35
2024-05-09T03:34:11.323Z,15.31
2024-05-09T03:36:45.766Z,15.30
2024-05-09T03:39:15.738Z,15.30
2024-05-09T03:41:45.582Z,15.28
2024-05-09T03:44:15.360Z,15.26
2024-05-09T03:46:42.488Z,15.27
2024-05-09T03:49:12.474Z,15.26
2024-05-09T03:51:39.879Z,15.25
2024-05-09T03:54:09.682Z,15.22
2024-05-09T03:56:37.994Z,15.22
2024-05-09T03:59:07.952Z,15.23
2024-05-09T04:01:38.204Z,15.24
2024-05-09T04:04:09.005Z,15.22
2024-05-09T04:06:36.282Z,15.22
2024-05-09T04:09:06.108Z,15.22
2024-05-09T04:11:33.418Z,15.19
2024-05-09T04:14:06.476Z,15.18
2024-05-09T04:16:33.633Z,15.18
2024-05-09T04:19:03.533Z,15.17
2024-05-09T04:21:30.703Z,15.19
2024-05-09T04:24:00.516Z,15.19
2024-05-09T04:26:27.749Z,15.20
2024-05-09T04:28:58.289Z,15.19
2024-05-09T04:31:25.507Z,15.19
2024-05-09T04:33:55.370Z,15.20
2024-05-09T04:36:22.551Z,15.20
2024-05-09T04:38:52.412Z,15.21
2024-05-09T04:41:20.467Z,15.24
2024-05-09T04:43:50.871Z,15.24
2024-05-09T04:46:18.191Z,15.23
2024-05-09T04:48:48.918Z,15.26
2024-05-09T04:51:18.800Z,15.27
2024-05-09T04:53:48.671Z,15.28
2024-05-09T04:56:15.819Z,15.29
2024-05-09T04:58:45.706Z,15.28
2024-05-09T05:01:13.107Z,15.29
2024-05-09T05:03:43.024Z,15.33
2024-05-09T05:06:10.410Z,15.36
2024-05-09T05:08:40.341Z,15.37
2024-05-09T05:11:07.645Z,15.39
2024-05-09T05:13:41.357Z,15.42
2024-05-09T05:16:08.797Z,15.45
2024-05-09T05:18:38.814Z,15.47
2024-05-09T05:21:06.367Z,15.50
2024-05-09T05:23:40.779Z,15.53
2024-05-09T05:26:10.106Z,15.55
2024-05-09T05:28:39.913Z,15.56
2024-05-09T05:31:07.042Z,15.60
2024-05-09T05:33:36.985Z,15.66
2024-05-09T05:36:04.518Z,15.70
2024-05-09T05:38:34.302Z,15.76
2024-05-09T05:41:01.592Z,15.79
2024-05-09T05:43:32.192Z,15.80
2024-05-09T05:45:59.262Z,15.84
2024-05-09T05:48:29.259Z,15.89
2024-05-09T05:50:56.560Z,15.92
2024-05-09T05:53:26.543Z,15.98
2024-05-09T05:55:53.746Z,16.04
2024-05-09T05:58:23.674Z,16.10
2024-05-09T06:00:53.303Z,16.19
2024-05-09T06:03:23.317Z,16.27
2024-05-09T06:05:50.654Z,16.33
2024-05-09T06:08:20.671Z,16.43
2024-05-09T06:10:48.000Z,16.49
2024-05-09T06:13:18.471Z,16.57
2024-05-09T06:15:45.602Z,16.67
2024-05-09T06:18:18.256Z,16.74
2024-05-09T06:20:45.915Z,16.85
2024-05-09T06:23:16.987Z,16.95
2024-05-09T06:25:44.234Z,17.02
2024-05-09T06:28:14.381Z,17.08
2024-05-09T06:30:42.868Z,17.16
2024-05-09T06:33:16.324Z,17.28
2024-05-09T06:35:46.206Z,17.37
2024-05-09T06:38:16.341Z,17.48
2024-05-09T06:40:44.554Z,17.55
2024-05-09T06:43:19.635Z,17.66
2024-05-09T06:45:49.028Z,17.73
2024-05-09T06:48:22.802Z,17.83
2024-05-09T06:50:50.849Z,17.94
2024-05-09T06:53:25.263Z,18.02
2024-05-09T06:55:52.691Z,18.12
2024-05-09T06:58:22.521Z,18.24
2024-05-09T07:00:49.727Z,18.31
2024-05-09T07:03:19.967Z,18.41
2024-05-09T07:05:48.985Z,18.48
2024-05-09T07:08:20.005Z,18.56
2024-05-09T07:10:47.507Z,18.69
2024-05-09T07:13:17.978Z,18.79
2024-05-09T07:15:45.350Z,18.88
2024-05-09T07:18:20.312Z,18.95
2024-05-09T07:20:51.573Z,19.08
2024-05-09T07:23:21.711Z,19.18
2024-05-09T07:25:48.990Z,19.30
2024-05-09T07:28:21.615Z,19.42
2024-05-09T07:30:48.839Z,19.54
2024-05-09T07:33:22.091Z,19.68
2024-05-09T07:35:50.681Z,19.75
2024-05-09T07:38:20.679Z,19.86
2024-05-09T07:40:48.218Z,19.97
2024-05-09T07:43:18.454Z,20.07
2024-05-09T07:45:52.389Z,20.16
2024-05-09T07:50:00.848Z,20.20
2024-05-09T07:53:52.269Z,20.42
2024-05-09T07:56:23.480Z,20.52
2024-05-09T07:58:55.666Z,20.67
2024-05-09T08:01:26.520Z,20.78
2024-05-09T08:03:57.549Z,20.86
2024-05-09T08:06:25.561Z,21.02
2024-05-09T08:08:56.005Z,21.09
2024-05-09T08:11:24.308Z,21.20
2024-05-09T08:13:54.278Z,21.33
2024-05-09T08:16:21.750Z,21.42
2024-05-09T08:18:51.908Z,21.50
2024-05-09T08:21:19.538Z,21.56
2024-05-09T08:23:49.374Z,21.59
2024-05-09T08:26:16.503Z,21.62
2024-05-09T08:28:46.309Z,21.61
2024-05-09T08:31:13.615Z,21.61
2024-05-09T08:33:51.660Z,21.57
2024-05-09T08:36:19.071Z,21.54
2024-05-09T08:38:48.940Z,21.52
2024-05-09T08:41:16.053Z,21.43
2024-05-09T08:43:47.762Z,21.38
2024-05-09T08:46:15.750Z,21.36
2024-05-09T08:48:48.334Z,21.31
2024-05-09T08:51:15.660Z,21.26
2024-05-09T08:53:45.613Z,21.21
2024-05-09T08:56:14.422Z,21.13
2024-05-09T08:58:45.551Z,21.10
2024-05-09T09:01:15.726Z,21.07
2024-05-09T09:03:47.976Z,21.06
2024-05-09T09:06:21.678Z,21.02
2024-05-09T09:08:51.925Z,21.00
2024-05-09T09:11:19.288Z,21.01
2024-05-09T09:13:49.104Z,21.00
2024-05-09T09:16:17.242Z,20.98
2024-05-09T09:18:47.540Z,20.98
2024-05-09T09:21:14.752Z,20.96
2024-05-09T09:23:44.678Z,20.94
2024-05-09T09:26:17.008Z,20.92
2024-05-09T09:28:47.411Z,20.92
2024-05-09T09:31:19.455Z,20.88
2024-05-09T09:33:49.971Z,20.88
2024-05-09T09:36:18.497Z,20.88
2024-05-09T09:38:51.373Z,20.87
2024-05-09T09:41:21.241Z,20.88
2024-05-09T09:43:51.308Z,20.88
2024-05-09T09:46:19.628Z,20.91
2024-05-09T09:48:51.362Z,20.94
2024-05-09T09:51:19.368Z,20.98
2024-05-09T09:56:18.705Z,21.02
2024-05-09T09:58:49.594Z,21.06
2024-05-09T10:01:16.859Z,21.11
2024-05-09T10:03:47.900Z,21.14
2024-05-09T10:06:16.070Z,21.24
2024-05-09T10:08:48.967Z,21.32
2024-05-09T10:11:21.317Z,21.36
2024-05-09T10:13:51.360Z,21.47
2024-05-09T10:16:22.337Z,21.55
2024-05-09T10:18:52.646Z,21.60
2024-05-09T10:21:20.714Z,21.64
2024-05-09T10:24:00.638Z,21.72
2024-05-09T10:26:35.340Z,21.72
2024-05-09T10:29:20.001Z,21.81
2024-05-09T10:31:48.368Z,21.94
2024-05-09T10:34:26.701Z,22.08
2024-05-09T10:36:54.801Z,22.27
2024-05-09T10:39:25.222Z,22.47
2024-05-09T10:41:52.538Z,22.67
2024-05-09T10:44:24.573Z,22.81
2024-05-09T10:46:54.662Z,22.97
2024-05-09T10:49:25.828Z,23.12
2024-05-09T10:51:53.400Z,23.30
2024-05-09T10:54:23.289Z,23.41
2024-05-09T10:56:59.582Z,23.55
2024-05-09T10:59:42.472Z,23.72
2024-05-09T11:02:11.089Z,23.83
2024-05-09T11:04:45.171Z,23.96
2024-05-09T11:07:16.567Z,24.12
2024-05-09T11:09:46.861Z,24.25
2024-05-09T11:12:14.343Z,24.39
2024-05-09T11:14:55.354Z,24.51
2024-05-09T11:17:22.546Z,24.66
2024-05-09T11:19:54.005Z,24.75
2024-05-09T11:22:22.169Z,24.85
2024-05-09T11:24:52.631Z,24.95
2024-05-09T11:27:23.712Z,25.02
2024-05-09T11:29:53.491Z,25.13
2024-05-09T11:32:29.861Z,25.26
2024-05-09T11:35:02.589Z,25.33
2024-05-09T11:37:35.427Z,25.42
2024-05-09T11:40:13.610Z,25.53
2024-05-09T11:42:47.701Z,25.59
2024-05-09T11:45:18.441Z,25.63
2024-05-09T11:47:45.639Z,25.56
2024-05-09T11:50:22.607Z,25.53
2024-05-09T11:52:56.642Z,25.52
2024-05-09T11:55:28.187Z,25.53
2024-05-09T11:57:56.131Z,25.55
2024-05-09T12:00:33.980Z,25.54
2024-05-09T12:03:05.702Z,25.53
2024-05-09T12:05:36.417Z,25.55
2024-05-09T12:08:03.969Z,25.58
2024-05-09T12:10:36.021Z,25.63
2024-05-09T12:13:06.104Z,25.70
2024-05-09T12:15:43.319Z,25.74
2024-05-09T12:18:10.627Z,25.79
2024-05-09T12:20:40.534Z,25.83
2024-05-09T12:23:10.222Z,25.89
2024-05-09T12:25:42.235Z,25.94
2024-05-09T12:28:09.663Z,26.02
2024-05-09T12:30:41.560Z,26.07
2024-05-09T12:33:13.847Z,26.15
2024-05-09T12:35:47.296Z,26.25
2024-05-09T12:38:16.532Z,26.31
2024-05-09T12:40:46.465Z,26.37
2024-05-09T12:43:13.677Z,26.42
2024-05-09T12:45:43.766Z,26.46
2024-05-09T12:48:12.383Z,26.52
2024-05-09T12:50:43.571Z,26.59
2024-05-09T12:53:10.913Z,26.56
2024-05-09T12:55:48.769Z,26.51
2024-05-09T12:58:23.594Z,26.43
2024-05-09T13:00:54.915Z,26.30
2024-05-09T13:03:22.360Z,26.14
2024-05-09T13:05:55.903Z,25.96
2024-05-09T13:08:23.131Z,25.89
2024-05-09T13:10:53.190Z,25.78
2024-05-09T13:13:20.560Z,25.72
2024-05-09T13:15:50.607Z,25.70
2024-05-09T13:18:17.894Z,25.60
2024-05-09T13:20:47.665Z,25.62
2024-05-09T13:23:14.873Z,25.59
2024-05-09T13:25:44.747Z,25.56
2024-05-09T13:28:11.882Z,25.54
2024-05-09T13:30:42.442Z,25.52
2024-05-09T13:33:15.857Z,25.49
2024-05-09T13:35:49.659Z,25.42
2024-05-09T13:38:22.353Z,25.31
2024-05-09T13:40:52.710Z,25.32
2024-05-09T13:43:22.035Z,25.32
2024-05-09T13:45:52.493Z,25.32
2024-05-09T13:48:20.000Z,25.41
2024-05-09T13:50:50.152Z,25.48
2024-05-09T13:53:17.334Z,25.55
2024-05-09T13:55:47.252Z,25.61
2024-05-09T13:58:14.748Z,25.60
2024-05-09T14:00:48.768Z,25.63
2024-05-09T14:03:19.213Z,25.57
2024-05-09T14:05:51.859Z,25.55
2024-05-09T14:08:20.078Z,25.47
2024-05-09T14:10:53.757Z,25.41
2024-05-09T14:13:21.273Z,25.34
2024-05-09T14:15:54.060Z,25.28
2024-05-09T14:18:21.605Z,25.22
2024-05-09T14:20:51.441Z,25.16
2024-05-09T14:23:18.634Z,25.07
2024-05-09T14:25:52.148Z,25.00
2024-05-09T14:28:21.967Z,24.92
2024-05-09T14:30:51.832Z,24.86
2024-05-09T14:33:25.405Z,24.79
2024-05-09T14:35:58.757Z,24.77
2024-05-09T14:38:27.378Z,24.79
2024-05-09T14:40:57.191Z,24.83
2024-05-09T14:43:24.640Z,24.91
2024-05-09T14:45:55.862Z,24.94
2024-05-09T14:48:23.428Z,25.04
2024-05-09T14:50:53.220Z,25.12
2024-05-09T14:53:20.527Z,25.19
2024-05-09T14:55:50.796Z,25.20
2024-05-09T14:58:18.330Z,25.20
2024-05-09T15:00:51.342Z,25.15
2024-05-09T15:03:20.648Z,25.09
2024-05-09T15:05:51.984Z,25.01
2024-05-09T15:08:20.251Z,24.92
2024-05-09T15:10:51.049Z,24.86
2024-05-09T15:13:20.671Z,24.77
2024-05-09T15:15:51.233Z,24.67
2024-05-09T15:18:18.692Z,24.61
2024-05-09T15:20:49.023Z,24.54
2024-05-09T15:23:16.646Z,24.49
2024-05-09T15:25:47.162Z,24.43
2024-05-09T15:28:14.637Z,24.36
2024-05-09T15:30:46.549Z,24.30
2024-05-09T15:33:14.901Z,24.25
2024-05-09T15:35:46.708Z,24.22
2024-05-09T15:38:15.719Z,24.20
2024-05-09T15:40:45.855Z,24.17
2024-05-09T15:43:13.336Z,24.17
2024-05-09T15:45:43.833Z,24.20
2024-05-09T15:48:11.623Z,24.25
2024-05-09T15:50:42.827Z,24.28
2024-05-09T15:53:13.157Z,24.31
2024-05-09T15:55:44.281Z,24.35
2024-05-09T15:58:12.411Z,24.43
2024-05-09T16:00:44.827Z,24.49
2024-05-09T16:03:14.710Z,24.47
2024-05-09T16:05:49.039Z,24.52
2024-05-09T16:08:16.897Z,24.54
2024-05-09T16:10:48.253Z,24.53
2024-05-09T16:13:17.176Z,24.56
2024-05-09T16:15:47.916Z,24.58
2024-05-09T16:18:15.239Z,24.59
2024-05-09T16:20:47.481Z,24.57
2024-05-09T16:23:16.733Z,24.57
2024-05-09T16:25:48.043Z,24.58
2024-05-09T16:28:16.030Z,24.48
2024-05-09T16:30:45.837Z,24.45
2024-05-09T16:33:13.327Z,24.40
2024-05-09T16:35:43.539Z,24.36
2024-05-09T16:38:10.880Z,24.36
2024-05-09T16:40:41.585Z,24.37
2024-05-09T16:43:13.348Z,24.35
2024-05-09T16:45:45.790Z,24.34
2024-05-09T16:48:14.241Z,24.35
2024-05-09T16:50:44.421Z,24.35
2024-05-09T16:53:11.678Z,24.34
2024-05-09T16:55:41.373Z,24.34
2024-05-09T16:58:08.885Z,24.33
2024-05-09T17:00:42.448Z,24.30
2024-05-09T17:03:15.160Z,24.26
2024-05-09T17:05:47.632Z,24.24
2024-05-09T17:08:16.745Z,24.19
2024-05-09T17:10:49.831Z,24.15
2024-05-09T17:13:20.444Z,24.08
2024-05-09T17:15:51.790Z,24.05
2024-05-09T17:18:22.467Z,23.99
2024-05-09T17:20:52.635Z,23.94
2024-05-09T17:23:19.778Z,23.85
2024-05-09T17:25:49.604Z,23.79
2024-05-09T17:28:17.069Z,23.71
2024-05-09T17:30:46.912Z,23.64
2024-05-09T17:33:14.304Z,23.58
2024-05-09T17:35:45.882Z,23.50
2024-05-09T17:38:13.330Z,23.42
2024-05-09T17:40:43.246Z,23.34
2024-05-09T17:43:11.120Z,23.28
2024-05-09T17:45:44.271Z,23.19
2024-05-09T17:48:12.324Z,23.12
2024-05-09T17:50:42.980Z,23.03
2024-05-09T17:53:11.144Z,22.95
2024-05-09T17:55:41.547Z,22.86
2024-05-09T17:58:09.938Z,22.79
2024-05-09T18:00:42.224Z,22.70
2024-05-09T18:03:12.235Z,22.61
2024-05-09T18:05:44.700Z,22.51
2024-05-09T18:08:13.260Z,22.41
2024-05-09T18:10:43.496Z,22.30
2024-05-09T18:13:13.556Z,22.19
2024-05-09T18:15:45.208Z,22.09
2024-05-09T18:18:12.990Z,21.98
2024-05-09T18:20:45.733Z,21.88
2024-05-09T18:23:16.420Z,21.75
2024-05-09T18:25:48.505Z,21.64
2024-05-09T18:28:16.847Z,21.51
2024-05-09T18:30:47.385Z,21.39
2024-05-09T18:33:15.183Z,21.28
2024-05-09T18:35:48.817Z,21.16
2024-05-09T18:38:16.016Z,21.05
2024-05-09T18:40:49.016Z,20.95
2024-05-09T18:43:17.300Z,20.85
2024-05-09T18:45:48.490Z,20.76
2024-05-09T18:48:18.583Z,20.63
2024-05-09T18:50:45.808Z,20.53
2024-05-09T18:53:17.158Z,20.43
2024-05-09T18:55:44.441Z,20.34
2024-05-09T18:58:17.177Z,20.26
2024-05-09T19:00:47.168Z,20.17
2024-05-09T19:03:19.701Z,20.06
2024-05-09T19:05:47.397Z,19.97
2024-05-09T19:08:17.900Z,19.88
2024-05-09T19:10:45.964Z,19.81
2024-05-09T19:13:16.592Z,19.74
2024-05-09T19:15:44.690Z,19.69
2024-05-09T19:18:18.057Z,19.63
2024-05-09T19:20:45.331Z,19.57
2024-05-09T19:23:15.359Z,19.54
2024-05-09T19:25:42.470Z,19.50
2024-05-09T19:28:12.286Z,19.46
2024-05-09T19:30:42.124Z,19.41
2024-05-09T19:33:14.542Z,19.35
2024-05-09T19:35:43.252Z,19.30
2024-05-09T19:38:14.111Z,19.24
2024-05-09T19:40:42.095Z,19.16
2024-05-09T19:43:12.172Z,19.13
2024-05-09T19:45:39.770Z,19.05
2024-05-09T19:48:10.566Z,18.99
2024-05-09T19:50:42.885Z,18.89
2024-05-09T19:53:15.406Z,18.82
2024-05-09T19:55:43.053Z,18.76
2024-05-09T19:58:13.942Z,18.68
2024-05-09T20:00:43.354Z,18.61
2024-05-09T20:03:16.134Z,18.56
2024-05-09T20:05:46.393Z,18.48
2024-05-09T20:08:16.796Z,18.42
2024-05-09T20:10:44.267Z,18.36
2024-05-09T20:13:14.243Z,18.30
2024-05-09T20:15:41.500Z,18.25
2024-05-09T20:18:11.476Z,18.20
2024-05-09T20:20:42.001Z,18.15
2024-05-09T20:23:14.833Z,18.09
2024-05-09T20:25:42.889Z,18.03
2024-05-09T20:28:13.141Z,17.96
2024-05-09T20:30:40.614Z,17.90
2024-05-09T20:33:10.786Z,17.85
2024-05-09T20:35:38.104Z,17.81
2024-05-09T20:38:08.453Z,17.74
2024-05-09T20:40:38.497Z,17.67
2024-05-09T20:43:11.319Z,17.59
2024-05-09T20:45:38.922Z,17.54
2024-05-09T20:48:10.632Z,17.48
2024-05-09T20:50:41.087Z,17.42
2024-05-09T20:53:15.206Z,17.36
2024-05-09T20:55:44.264Z,17.27
2024-05-09T20:58:14.828Z,17.19
2024-05-09T21:00:45.507Z,17.14
2024-05-09T21:03:17.834Z,17.05
2024-05-09T21:05:46.073Z,16.98
2024-05-09T21:08:16.291Z,16.90
2024-05-09T21:10:43.721Z,16.86
2024-05-09T21:13:13.896Z,16.83
2024-05-09T21:15:41.250Z,16.76
2024-05-09T21:18:11.739Z,16.69
2024-05-09T21:20:38.980Z,16.64
2024-05-09T21:23:08.988Z,16.59
2024-05-09T21:25:36.161Z,16.55
2024-05-09T21:28:06.439Z,16.51
2024-05-09T21:30:41.267Z,16.44
2024-05-09T21:33:16.451Z,16.41
2024-05-09T21:35:44.647Z,16.37
2024-05-09T21:38:16.109Z,16.33
2024-05-09T21:40:44.347Z,16.30
2024-05-09T21:43:14.863Z,16.24
2024-05-09T21:45:42.624Z,16.23
2024-05-09T21:48:14.835Z,16.18
2024-05-09T21:50:42.662Z,16.14
2024-05-09T21:53:17.137Z,16.09
2024-05-09T21:55:44.804Z,16.03
2024-05-09T21:58:16.931Z,16.00
2024-05-09T22:00:46.375Z,15.94
2024-05-09T22:03:17.427Z,15.92
2024-05-09T22:05:45.351Z,15.90
2024-05-09T22:08:15.722Z,15.84
2024-05-09T22:10:43.011Z,15.81
2024-05-09T22:13:12.989Z,15.78
2024-05-09T22:15:40.830Z,15.76
2024-05-09T22:18:11.839Z,15.70
2024-05-09T22:20:45.106Z,15.65
2024-05-09T22:23:16.650Z,15.61
2024-05-09T22:25:44.002Z,15.56
2024-05-09T22:28:18.019Z,15.53
2024-05-09T22:30:47.082Z,15.48
2024-05-09T22:33:18.020Z,15.45
2024-05-09T22:35:45.499Z,15.41
2024-05-09T22:38:15.445Z,15.37
2024-05-09T22:40:48.035Z,15.34
2024-05-09T22:43:25.158Z,15.30
2024-05-09T22:45:54.951Z,15.25
2024-05-09T22:48:26.300Z,15.22
2024-05-09T22:50:54.488Z,15.19
2024-05-09T22:53:28.300Z,15.13
2024-05-09T22:55:55.449Z,15.08
2024-05-09T22:58:26.069Z,15.04
2024-05-09T23:00:53.599Z,14.99
2024-05-09T23:03:23.598Z,14.96
2024-05-09T23:05:50.754Z,14.91
2024-05-09T23:08:20.999Z,14.87
2024-05-09T23:10:53.711Z,14.82
2024-05-09T23:13:23.827Z,14.77
2024-05-09T23:15:51.092Z,14.74
2024-05-09T23:18:21.127Z,14.72
2024-05-09T23:20:48.379Z,14.67
2024-05-09T23:23:18.281Z,14.63
2024-05-09T23:25:45.566Z,14.59
2024-05-09T23:28:16.075Z,14.55
2024-05-09T23:30:43.333Z,14.49
2024-05-09T23:33:14.899Z,14.47
2024-05-09T23:35:43.469Z,14.42
2024-05-09T23:38:13.658Z,14.39
2024-05-09T23:40:42.327Z,14.36
2024-05-09T23:43:13.960Z,14.32
2024-05-09T23:45:42.419Z,14.27
2024-05-09T23:48:13.313Z,14.23
2024-05-09T23:50:41.340Z,14.21
2024-05-09T23:53:11.616Z,14.18
2024-05-09T23:55:39.483Z,14.12
2024-05-09T23:58:11.489Z,14.10
